sensor_id;sensor_type;location;lat;lon;timestamp;P1;durP1;ratioP1;P2;durP2;ratioP2
6614;SDS011;3343;42.896;23.912;2023-03-14T00:01:09;16.13;;;7.70;;
6614;SDS011;3343;42.896;23.912;2023-03-14T00:03:39;9.13;;;4.73;;
6614;SDS011;3343;42.896;23.912;2023-03-14T00:06:06;8.37;;;4.57;;
6614;SDS011;3343;42.896;23.912;2023-03-14T00:08:34;9.77;;;4.30;;
6614;SDS011;3343;42.896;23.912;2023-03-14T00:11:05;3.23;;;2.10;;
6614;SDS011;3343;42.896;23.912;2023-03-14T00:13:33;3.00;;;1.90;;
6614;SDS011;3343;42.896;23.912;2023-03-14T00:16:04;2.20;;;1.90;;
6614;SDS011;3343;42.896;23.912;2023-03-14T00:18:32;5.37;;;2.83;;
6614;SDS011;3343;42.896;23.912;2023-03-14T00:21:01;3.43;;;2.00;;
6614;SDS011;3343;42.896;23.912;2023-03-14T00:23:29;1.90;;;1.70;;
6614;SDS011;3343;42.896;23.912;2023-03-14T00:25:58;1.50;;;1.40;;
6614;SDS011;3343;42.896;23.912;2023-03-14T00:28:26;2.10;;;1.60;;
6614;SDS011;3343;42.896;23.912;2023-03-14T00:30:53;3.27;;;2.17;;
6614;SDS011;3343;42.896;23.912;2023-03-14T00:33:19;3.83;;;1.63;;
6614;SDS011;3343;42.896;23.912;2023-03-14T00:35:52;1.90;;;1.47;;
6614;SDS011;3343;42.896;23.912;2023-03-14T00:38:21;2.30;;;1.90;;
6614;SDS011;3343;42.896;23.912;2023-03-14T00:40:49;4.23;;;2.67;;
6614;SDS011;3343;42.896;23.912;2023-03-14T00:43:16;6.03;;;3.37;;
6614;SDS011;3343;42.896;23.912;2023-03-14T00:45:43;3.77;;;2.30;;
6614;SDS011;3343;42.896;23.912;2023-03-14T00:48:10;7.17;;;3.43;;
6614;SDS011;3343;42.896;23.912;2023-03-14T00:50:37;5.07;;;2.70;;
6614;SDS011;3343;42.896;23.912;2023-03-14T00:53:04;3.47;;;2.30;;
6614;SDS011;3343;42.896;23.912;2023-03-14T00:55:32;4.90;;;2.33;;
6614;SDS011;3343;42.896;23.912;2023-03-14T00:58:03;2.37;;;1.83;;
6614;SDS011;3343;42.896;23.912;2023-03-14T01:00:30;3.37;;;2.33;;
6614;SDS011;3343;42.896;23.912;2023-03-14T01:02:58;1.87;;;1.60;;
6614;SDS011;3343;42.896;23.912;2023-03-14T01:05:25;2.87;;;2.00;;
6614;SDS011;3343;42.896;23.912;2023-03-14T01:07:51;1.97;;;1.73;;
6614;SDS011;3343;42.896;23.912;2023-03-14T01:10:18;4.77;;;1.93;;
6614;SDS011;3343;42.896;23.912;2023-03-14T01:12:47;1.73;;;1.47;;
6614;SDS011;3343;42.896;23.912;2023-03-14T01:15:14;4.03;;;1.40;;
6614;SDS011;3343;42.896;23.912;2023-03-14T01:17:41;1.17;;;1.07;;
6614;SDS011;3343;42.896;23.912;2023-03-14T01:20:09;3.77;;;1.40;;
6614;SDS011;3343;42.896;23.912;2023-03-14T01:22:38;1.73;;;1.50;;
6614;SDS011;3343;42.896;23.912;2023-03-14T01:25:06;4.00;;;2.70;;
6614;SDS011;3343;42.896;23.912;2023-03-14T01:27:34;8.10;;;3.57;;
6614;SDS011;3343;42.896;23.912;2023-03-14T01:30:02;6.67;;;3.73;;
6614;SDS011;3343;42.896;23.912;2023-03-14T01:32:30;7.47;;;3.20;;
6614;SDS011;3343;42.896;23.912;2023-03-14T01:34:57;3.67;;;2.53;;
6614;SDS011;3343;42.896;23.912;2023-03-14T01:37:23;1.97;;;1.77;;
6614;SDS011;3343;42.896;23.912;2023-03-14T01:39:50;4.53;;;2.70;;
6614;SDS011;3343;42.896;23.912;2023-03-14T01:42:17;3.37;;;2.30;;
6614;SDS011;3343;42.896;23.912;2023-03-14T01:44:48;9.10;;;3.43;;
6614;SDS011;3343;42.896;23.912;2023-03-14T01:47:17;6.10;;;3.40;;
6614;SDS011;3343;42.896;23.912;2023-03-14T01:49:44;3.97;;;2.63;;
6614;SDS011;3343;42.896;23.912;2023-03-14T01:52:16;2.80;;;2.30;;
6614;SDS011;3343;42.896;23.912;2023-03-14T01:54:46;5.70;;;3.13;;
6614;SDS011;3343;42.896;23.912;2023-03-14T01:57:17;3.10;;;2.27;;
6614;SDS011;3343;42.896;23.912;2023-03-14T01:59:50;2.33;;;2.13;;
6614;SDS011;3343;42.896;23.912;2023-03-14T02:02:22;3.17;;;2.10;;
6614;SDS011;3343;42.896;23.912;2023-03-14T02:04:51;6.07;;;2.47;;
6614;SDS011;3343;42.896;23.912;2023-03-14T02:07:20;3.77;;;2.43;;
6614;SDS011;3343;42.896;23.912;2023-03-14T02:09:51;4.90;;;3.07;;
6614;SDS011;3343;42.896;23.912;2023-03-14T02:12:19;3.83;;;2.37;;
6614;SDS011;3343;42.896;23.912;2023-03-14T02:14:48;4.23;;;2.50;;
6614;SDS011;3343;42.896;23.912;2023-03-14T02:17:15;5.47;;;3.17;;
6614;SDS011;3343;42.896;23.912;2023-03-14T02:19:48;3.07;;;1.80;;
6614;SDS011;3343;42.896;23.912;2023-03-14T02:22:24;2.53;;;1.90;;
6614;SDS011;3343;42.896;23.912;2023-03-14T02:24:58;3.03;;;1.60;;
6614;SDS011;3343;42.896;23.912;2023-03-14T02:27:34;2.30;;;1.40;;
6614;SDS011;3343;42.896;23.912;2023-03-14T02:30:02;6.70;;;1.50;;
6614;SDS011;3343;42.896;23.912;2023-03-14T02:32:31;2.87;;;1.70;;
6614;SDS011;3343;42.896;23.912;2023-03-14T02:35:01;1.83;;;1.73;;
6614;SDS011;3343;42.896;23.912;2023-03-14T02:37:35;2.47;;;1.70;;
6614;SDS011;3343;42.896;23.912;2023-03-14T02:40:05;2.27;;;1.60;;
6614;SDS011;3343;42.896;23.912;2023-03-14T02:42:34;3.00;;;1.70;;
6614;SDS011;3343;42.896;23.912;2023-03-14T02:48:05;3.23;;;2.23;;
6614;SDS011;3343;42.896;23.912;2023-03-14T02:50:35;2.40;;;1.90;;
6614;SDS011;3343;42.896;23.912;2023-03-14T02:53:02;1.93;;;1.57;;
6614;SDS011;3343;42.896;23.912;2023-03-14T02:55:29;6.63;;;3.57;;
6614;SDS011;3343;42.896;23.912;2023-03-14T02:57:57;3.37;;;2.50;;
6614;SDS011;3343;42.896;23.912;2023-03-14T03:00:24;2.80;;;2.00;;
6614;SDS011;3343;42.896;23.912;2023-03-14T03:02:51;1.37;;;1.27;;
6614;SDS011;3343;42.896;23.912;2023-03-14T03:05:18;4.13;;;1.80;;
6614;SDS011;3343;42.896;23.912;2023-03-14T03:07:45;2.07;;;1.70;;
6614;SDS011;3343;42.896;23.912;2023-03-14T03:10:12;2.20;;;1.67;;
6614;SDS011;3343;42.896;23.912;2023-03-14T03:12:39;2.17;;;1.80;;
6614;SDS011;3343;42.896;23.912;2023-03-14T03:15:07;4.83;;;1.73;;
6614;SDS011;3343;42.896;23.912;2023-03-14T03:17:34;2.80;;;1.70;;
6614;SDS011;3343;42.896;23.912;2023-03-14T03:20:02;2.27;;;1.50;;
6614;SDS011;3343;42.896;23.912;2023-03-14T03:22:30;4.73;;;2.47;;
6614;SDS011;3343;42.896;23.912;2023-03-14T03:24:57;2.47;;;1.70;;
6614;SDS011;3343;42.896;23.912;2023-03-14T03:27:23;1.60;;;1.50;;
6614;SDS011;3343;42.896;23.912;2023-03-14T03:29:50;1.70;;;1.50;;
6614;SDS011;3343;42.896;23.912;2023-03-14T03:32:18;2.17;;;1.50;;
6614;SDS011;3343;42.896;23.912;2023-03-14T03:34:45;1.57;;;1.47;;
6614;SDS011;3343;42.896;23.912;2023-03-14T03:37:12;2.67;;;1.47;;
6614;SDS011;3343;42.896;23.912;2023-03-14T03:39:39;1.60;;;1.50;;
6614;SDS011;3343;42.896;23.912;2023-03-14T03:42:06;2.13;;;1.40;;
6614;SDS011;3343;42.896;23.912;2023-03-14T03:44:33;2.33;;;1.60;;
6614;SDS011;3343;42.896;23.912;2023-03-14T03:46:59;3.27;;;2.27;;
6614;SDS011;3343;42.896;23.912;2023-03-14T03:49:29;2.33;;;1.73;;
6614;SDS011;3343;42.896;23.912;2023-03-14T03:51:56;4.43;;;2.80;;
6614;SDS011;3343;42.896;23.912;2023-03-14T03:54:24;5.83;;;2.43;;
6614;SDS011;3343;42.896;23.912;2023-03-14T03:56:51;2.47;;;1.90;;
6614;SDS011;3343;42.896;23.912;2023-03-14T03:59:18;7.67;;;4.10;;
6614;SDS011;3343;42.896;23.912;2023-03-14T04:01:44;7.27;;;4.00;;
6614;SDS011;3343;42.896;23.912;2023-03-14T04:04:11;4.40;;;3.03;;
6614;SDS011;3343;42.896;23.912;2023-03-14T04:06:39;4.73;;;2.60;;
6614;SDS011;3343;42.896;23.912;2023-03-14T04:09:14;3.53;;;2.47;;
6614;SDS011;3343;42.896;23.912;2023-03-14T04:11:41;2.47;;;1.90;;
6614;SDS011;3343;42.896;23.912;2023-03-14T04:14:08;3.10;;;2.00;;
6614;SDS011;3343;42.896;23.912;2023-03-14T04:16:35;6.10;;;3.57;;
6614;SDS011;3343;42.896;23.912;2023-03-14T04:19:02;3.93;;;2.77;;
6614;SDS011;3343;42.896;23.912;2023-03-14T04:21:29;6.27;;;3.63;;
6614;SDS011;3343;42.896;23.912;2023-03-14T04:23:57;3.60;;;2.37;;
6614;SDS011;3343;42.896;23.912;2023-03-14T04:26:24;4.17;;;3.20;;
6614;SDS011;3343;42.896;23.912;2023-03-14T04:28:51;2.87;;;2.23;;
6614;SDS011;3343;42.896;23.912;2023-03-14T04:31:18;2.70;;;2.03;;
6614;SDS011;3343;42.896;23.912;2023-03-14T04:33:47;3.60;;;2.37;;
6614;SDS011;3343;42.896;23.912;2023-03-14T04:36:14;1.47;;;1.37;;
6614;SDS011;3343;42.896;23.912;2023-03-14T04:38:41;2.83;;;1.80;;
6614;SDS011;3343;42.896;23.912;2023-03-14T04:41:10;2.53;;;1.73;;
6614;SDS011;3343;42.896;23.912;2023-03-14T04:43:37;2.60;;;2.03;;
6614;SDS011;3343;42.896;23.912;2023-03-14T04:46:04;4.87;;;2.43;;
6614;SDS011;3343;42.896;23.912;2023-03-14T04:48:31;7.93;;;3.50;;
6614;SDS011;3343;42.896;23.912;2023-03-14T04:50:58;3.83;;;2.33;;
6614;SDS011;3343;42.896;23.912;2023-03-14T04:53:25;4.17;;;2.60;;
6614;SDS011;3343;42.896;23.912;2023-03-14T04:55:53;1.67;;;1.57;;
6614;SDS011;3343;42.896;23.912;2023-03-14T04:58:22;2.63;;;1.90;;
6614;SDS011;3343;42.896;23.912;2023-03-14T05:00:50;1.77;;;1.30;;
6614;SDS011;3343;42.896;23.912;2023-03-14T05:03:17;1.83;;;1.60;;
6614;SDS011;3343;42.896;23.912;2023-03-14T05:05:45;1.83;;;1.57;;
6614;SDS011;3343;42.896;23.912;2023-03-14T05:08:12;2.47;;;1.93;;
6614;SDS011;3343;42.896;23.912;2023-03-14T05:10:39;1.97;;;1.77;;
6614;SDS011;3343;42.896;23.912;2023-03-14T05:13:06;6.43;;;4.00;;
6614;SDS011;3343;42.896;23.912;2023-03-14T05:15:34;23.23;;;9.87;;
6614;SDS011;3343;42.896;23.912;2023-03-14T05:18:01;8.83;;;3.13;;
6614;SDS011;3343;42.896;23.912;2023-03-14T05:20:28;13.20;;;5.27;;
6614;SDS011;3343;42.896;23.912;2023-03-14T05:22:56;6.53;;;4.17;;
6614;SDS011;3343;42.896;23.912;2023-03-14T05:25:23;21.93;;;8.17;;
6614;SDS011;3343;42.896;23.912;2023-03-14T05:27:50;21.37;;;8.90;;
6614;SDS011;3343;42.896;23.912;2023-03-14T05:30:19;14.57;;;7.50;;
6614;SDS011;3343;42.896;23.912;2023-03-14T05:32:48;18.23;;;8.30;;
6614;SDS011;3343;42.896;23.912;2023-03-14T05:35:15;29.73;;;11.90;;
6614;SDS011;3343;42.896;23.912;2023-03-14T05:37:42;32.13;;;14.33;;
6614;SDS011;3343;42.896;23.912;2023-03-14T05:40:09;31.70;;;12.50;;
6614;SDS011;3343;42.896;23.912;2023-03-14T05:42:37;27.90;;;11.33;;
6614;SDS011;3343;42.896;23.912;2023-03-14T05:45:04;35.80;;;14.70;;
6614;SDS011;3343;42.896;23.912;2023-03-14T05:47:31;28.37;;;12.97;;
6614;SDS011;3343;42.896;23.912;2023-03-14T05:49:59;17.13;;;8.37;;
6614;SDS011;3343;42.896;23.912;2023-03-14T05:52:26;21.57;;;8.40;;
6614;SDS011;3343;42.896;23.912;2023-03-14T05:54:53;15.07;;;7.60;;
6614;SDS011;3343;42.896;23.912;2023-03-14T05:57:20;34.13;;;13.57;;
6614;SDS011;3343;42.896;23.912;2023-03-14T05:59:46;27.43;;;10.97;;
6614;SDS011;3343;42.896;23.912;2023-03-14T06:02:13;27.27;;;13.23;;
6614;SDS011;3343;42.896;23.912;2023-03-14T06:04:40;27.43;;;11.73;;
6614;SDS011;3343;42.896;23.912;2023-03-14T06:07:08;39.10;;;17.53;;
6614;SDS011;3343;42.896;23.912;2023-03-14T06:09:35;33.73;;;14.23;;
6614;SDS011;3343;42.896;23.912;2023-03-14T06:12:02;88.87;;;30.57;;
6614;SDS011;3343;42.896;23.912;2023-03-14T06:14:30;11.20;;;6.43;;
6614;SDS011;3343;42.896;23.912;2023-03-14T06:16:56;125.93;;;37.73;;
6614;SDS011;3343;42.896;23.912;2023-03-14T06:19:24;94.13;;;38.57;;
6614;SDS011;3343;42.896;23.912;2023-03-14T06:21:51;52.27;;;21.47;;
6614;SDS011;3343;42.896;23.912;2023-03-14T06:24:19;29.50;;;12.13;;
6614;SDS011;3343;42.896;23.912;2023-03-14T06:26:46;89.37;;;36.87;;
6614;SDS011;3343;42.896;23.912;2023-03-14T06:29:12;28.63;;;13.73;;
6614;SDS011;3343;42.896;23.912;2023-03-14T06:31:39;12.97;;;6.13;;
6614;SDS011;3343;42.896;23.912;2023-03-14T06:34:06;10.47;;;5.57;;
6614;SDS011;3343;42.896;23.912;2023-03-14T06:36:33;17.23;;;6.80;;
6614;SDS011;3343;42.896;23.912;2023-03-14T06:39:00;11.70;;;5.67;;
6614;SDS011;3343;42.896;23.912;2023-03-14T06:41:28;8.90;;;4.87;;
6614;SDS011;3343;42.896;23.912;2023-03-14T06:43:55;8.00;;;4.87;;
6614;SDS011;3343;42.896;23.912;2023-03-14T06:46:22;6.40;;;4.27;;
6614;SDS011;3343;42.896;23.912;2023-03-14T06:48:49;7.27;;;4.80;;
6614;SDS011;3343;42.896;23.912;2023-03-14T06:51:16;9.23;;;4.87;;
6614;SDS011;3343;42.896;23.912;2023-03-14T06:53:43;8.87;;;4.60;;
6614;SDS011;3343;42.896;23.912;2023-03-14T06:56:10;11.57;;;6.23;;
6614;SDS011;3343;42.896;23.912;2023-03-14T06:58:38;12.87;;;8.10;;
6614;SDS011;3343;42.896;23.912;2023-03-14T07:01:05;11.90;;;4.80;;
6614;SDS011;3343;42.896;23.912;2023-03-14T07:03:42;4.40;;;2.60;;
6614;SDS011;3343;42.896;23.912;2023-03-14T07:06:09;6.47;;;4.23;;
6614;SDS011;3343;42.896;23.912;2023-03-14T07:08:35;5.03;;;3.17;;
6614;SDS011;3343;42.896;23.912;2023-03-14T07:11:03;4.37;;;2.97;;
6614;SDS011;3343;42.896;23.912;2023-03-14T07:13:30;7.63;;;4.17;;
6614;SDS011;3343;42.896;23.912;2023-03-14T07:15:58;6.97;;;3.20;;
6614;SDS011;3343;42.896;23.912;2023-03-14T07:18:25;6.97;;;3.20;;
6614;SDS011;3343;42.896;23.912;2023-03-14T07:20:52;8.90;;;2.97;;
6614;SDS011;3343;42.896;23.912;2023-03-14T07:23:19;4.03;;;3.10;;
6614;SDS011;3343;42.896;23.912;2023-03-14T07:25:46;7.23;;;3.70;;
6614;SDS011;3343;42.896;23.912;2023-03-14T07:28:13;3.80;;;2.80;;
6614;SDS011;3343;42.896;23.912;2023-03-14T07:30:39;3.60;;;2.00;;
6614;SDS011;3343;42.896;23.912;2023-03-14T07:33:08;1.43;;;1.33;;
6614;SDS011;3343;42.896;23.912;2023-03-14T07:35:34;1.90;;;1.60;;
6614;SDS011;3343;42.896;23.912;2023-03-14T07:38:01;3.03;;;1.77;;
6614;SDS011;3343;42.896;23.912;2023-03-14T07:40:28;3.43;;;2.10;;
6614;SDS011;3343;42.896;23.912;2023-03-14T07:42:55;3.20;;;2.60;;
6614;SDS011;3343;42.896;23.912;2023-03-14T07:45:22;4.43;;;2.70;;
6614;SDS011;3343;42.896;23.912;2023-03-14T07:47:49;8.47;;;5.27;;
6614;SDS011;3343;42.896;23.912;2023-03-14T07:50:17;4.93;;;2.50;;
6614;SDS011;3343;42.896;23.912;2023-03-14T07:52:45;3.07;;;2.00;;
6614;SDS011;3343;42.896;23.912;2023-03-14T07:55:12;2.50;;;2.10;;
6614;SDS011;3343;42.896;23.912;2023-03-14T07:57:38;2.73;;;2.17;;
6614;SDS011;3343;42.896;23.912;2023-03-14T08:00:06;2.23;;;1.70;;
6614;SDS011;3343;42.896;23.912;2023-03-14T08:02:34;4.10;;;2.53;;
6614;SDS011;3343;42.896;23.912;2023-03-14T08:05:01;3.23;;;2.27;;
6614;SDS011;3343;42.896;23.912;2023-03-14T08:07:29;3.13;;;2.20;;
6614;SDS011;3343;42.896;23.912;2023-03-14T08:09:56;3.17;;;2.10;;
6614;SDS011;3343;42.896;23.912;2023-03-14T08:12:23;3.57;;;1.90;;
6614;SDS011;3343;42.896;23.912;2023-03-14T08:14:50;2.20;;;2.00;;
6614;SDS011;3343;42.896;23.912;2023-03-14T08:17:17;3.37;;;2.20;;
6614;SDS011;3343;42.896;23.912;2023-03-14T08:19:43;2.37;;;2.00;;
6614;SDS011;3343;42.896;23.912;2023-03-14T08:22:10;2.67;;;1.73;;
6614;SDS011;3343;42.896;23.912;2023-03-14T08:24:38;2.40;;;1.50;;
6614;SDS011;3343;42.896;23.912;2023-03-14T08:27:06;1.50;;;1.40;;
6614;SDS011;3343;42.896;23.912;2023-03-14T08:29:33;2.30;;;1.80;;
6614;SDS011;3343;42.896;23.912;2023-03-14T08:32:00;1.83;;;1.63;;
6614;SDS011;3343;42.896;23.912;2023-03-14T08:34:27;3.10;;;1.77;;
6614;SDS011;3343;42.896;23.912;2023-03-14T08:36:53;1.50;;;1.40;;
6614;SDS011;3343;42.896;23.912;2023-03-14T08:39:21;3.23;;;1.80;;
6614;SDS011;3343;42.896;23.912;2023-03-14T08:41:50;2.33;;;1.60;;
6614;SDS011;3343;42.896;23.912;2023-03-14T08:44:17;4.57;;;1.83;;
6614;SDS011;3343;42.896;23.912;2023-03-14T08:46:44;4.10;;;1.40;;
6614;SDS011;3343;42.896;23.912;2023-03-14T08:49:11;2.57;;;1.37;;
6614;SDS011;3343;42.896;23.912;2023-03-14T08:51:39;1.97;;;1.57;;
6614;SDS011;3343;42.896;23.912;2023-03-14T08:54:08;1.50;;;1.30;;
6614;SDS011;3343;42.896;23.912;2023-03-14T08:56:36;2.93;;;1.60;;
6614;SDS011;3343;42.896;23.912;2023-03-14T08:59:05;1.98;;;1.70;;
6614;SDS011;3343;42.896;23.912;2023-03-14T09:01:33;2.63;;;1.30;;
6614;SDS011;3343;42.896;23.912;2023-03-14T09:04:00;2.15;;;1.52;;
6614;SDS011;3343;42.896;23.912;2023-03-14T09:06:27;3.10;;;2.10;;
6614;SDS011;3343;42.896;23.912;2023-03-14T09:08:53;2.67;;;1.85;;
6614;SDS011;3343;42.896;23.912;2023-03-14T09:11:20;1.95;;;1.40;;
6614;SDS011;3343;42.896;23.912;2023-03-14T09:13:47;1.50;;;1.35;;
6614;SDS011;3343;42.896;23.912;2023-03-14T09:16:16;1.65;;;1.40;;
6614;SDS011;3343;42.896;23.912;2023-03-14T09:18:42;2.53;;;1.63;;
6614;SDS011;3343;42.896;23.912;2023-03-14T09:21:09;4.17;;;1.43;;
6614;SDS011;3343;42.896;23.912;2023-03-14T09:23:36;3.23;;;1.87;;
6614;SDS011;3343;42.896;23.912;2023-03-14T09:26:03;2.40;;;1.60;;
6614;SDS011;3343;42.896;23.912;2023-03-14T09:28:30;2.05;;;1.63;;
6614;SDS011;3343;42.896;23.912;2023-03-14T09:30:57;4.20;;;2.15;;
6614;SDS011;3343;42.896;23.912;2023-03-14T09:33:25;3.17;;;1.35;;
6614;SDS011;3343;42.896;23.912;2023-03-14T09:35:52;2.03;;;1.42;;
6614;SDS011;3343;42.896;23.912;2023-03-14T09:38:19;1.77;;;1.42;;
6614;SDS011;3343;42.896;23.912;2023-03-14T09:40:46;3.40;;;1.50;;
6614;SDS011;3343;42.896;23.912;2023-03-14T09:43:14;1.85;;;1.48;;
6614;SDS011;3343;42.896;23.912;2023-03-14T09:45:42;1.65;;;1.55;;
6614;SDS011;3343;42.896;23.912;2023-03-14T09:48:14;4.55;;;1.60;;
6614;SDS011;3343;42.896;23.912;2023-03-14T09:50:45;1.98;;;1.67;;
6614;SDS011;3343;42.896;23.912;2023-03-14T09:53:16;1.63;;;1.38;;
6614;SDS011;3343;42.896;23.912;2023-03-14T09:55:45;1.33;;;1.23;;
6614;SDS011;3343;42.896;23.912;2023-03-14T09:58:16;3.20;;;1.60;;
6614;SDS011;3343;42.896;23.912;2023-03-14T10:00:45;1.90;;;1.25;;
6614;SDS011;3343;42.896;23.912;2023-03-14T10:03:22;1.63;;;1.42;;
6614;SDS011;3343;42.896;23.912;2023-03-14T10:05:54;1.60;;;1.50;;
6614;SDS011;3343;42.896;23.912;2023-03-14T10:08:22;1.67;;;1.40;;
6614;SDS011;3343;42.896;23.912;2023-03-14T10:10:49;1.05;;;0.98;;
6614;SDS011;3343;42.896;23.912;2023-03-14T10:13:17;1.77;;;1.60;;
6614;SDS011;3343;42.896;23.912;2023-03-14T10:15:47;1.95;;;1.50;;
6614;SDS011;3343;42.896;23.912;2023-03-14T10:18:17;2.47;;;1.50;;
6614;SDS011;3343;42.896;23.912;2023-03-14T10:20:45;1.50;;;1.30;;
6614;SDS011;3343;42.896;23.912;2023-03-14T10:23:22;1.63;;;1.23;;
6614;SDS011;3343;42.896;23.912;2023-03-14T10:28:37;1.75;;;1.60;;
6614;SDS011;3343;42.896;23.912;2023-03-14T10:31:06;1.45;;;1.25;;
6614;SDS011;3343;42.896;23.912;2023-03-14T10:33:34;1.52;;;1.30;;
6614;SDS011;3343;42.896;23.912;2023-03-14T10:36:02;1.17;;;1.08;;
6614;SDS011;3343;42.896;23.912;2023-03-14T10:38:33;1.67;;;1.40;;
6614;SDS011;3343;42.896;23.912;2023-03-14T10:41:01;1.45;;;1.35;;
6614;SDS011;3343;42.896;23.912;2023-03-14T10:43:40;1.20;;;1.10;;
6614;SDS011;3343;42.896;23.912;2023-03-14T10:46:08;1.27;;;1.17;;
6614;SDS011;3343;42.896;23.912;2023-03-14T10:48:38;1.73;;;1.20;;
6614;SDS011;3343;42.896;23.912;2023-03-14T10:51:07;1.48;;;1.35;;
6614;SDS011;3343;42.896;23.912;2023-03-14T10:53:41;1.27;;;1.17;;
6614;SDS011;3343;42.896;23.912;2023-03-14T10:56:13;1.20;;;1.08;;
6614;SDS011;3343;42.896;23.912;2023-03-14T10:58:41;1.27;;;1.10;;
6614;SDS011;3343;42.896;23.912;2023-03-14T11:01:15;1.75;;;1.10;;
6614;SDS011;3343;42.896;23.912;2023-03-14T11:03:53;1.45;;;1.20;;
6614;SDS011;3343;42.896;23.912;2023-03-14T11:06:27;2.75;;;1.48;;
6614;SDS011;3343;42.896;23.912;2023-03-14T11:09:02;2.05;;;1.50;;
6614;SDS011;3343;42.896;23.912;2023-03-14T11:11:36;1.65;;;1.50;;
6614;SDS011;3343;42.896;23.912;2023-03-14T11:14:13;1.25;;;1.15;;
6614;SDS011;3343;42.896;23.912;2023-03-14T11:16:52;2.05;;;1.50;;
6614;SDS011;3343;42.896;23.912;2023-03-14T11:19:34;1.50;;;1.30;;
6614;SDS011;3343;42.896;23.912;2023-03-14T11:22:12;3.90;;;1.05;;
6614;SDS011;3343;42.896;23.912;2023-03-14T11:24:51;1.20;;;1.10;;
6614;SDS011;3343;42.896;23.912;2023-03-14T11:27:30;3.28;;;1.30;;
6614;SDS011;3343;42.896;23.912;2023-03-14T11:30:05;1.25;;;1.15;;
6614;SDS011;3343;42.896;23.912;2023-03-14T11:32:44;1.58;;;1.45;;
6614;SDS011;3343;42.896;23.912;2023-03-14T11:35:16;2.03;;;1.38;;
6614;SDS011;3343;42.896;23.912;2023-03-14T11:37:52;1.80;;;1.02;;
6614;SDS011;3343;42.896;23.912;2023-03-14T11:40:23;3.40;;;1.40;;
6614;SDS011;3343;42.896;23.912;2023-03-14T11:42:55;2.10;;;1.40;;
6614;SDS011;3343;42.896;23.912;2023-03-14T11:45:29;3.78;;;1.63;;
6614;SDS011;3343;42.896;23.912;2023-03-14T11:50:55;1.23;;;1.13;;
6614;SDS011;3343;42.896;23.912;2023-03-14T11:53:29;2.97;;;1.30;;
6614;SDS011;3343;42.896;23.912;2023-03-14T11:56:09;1.95;;;1.40;;
6614;SDS011;3343;42.896;23.912;2023-03-14T11:58:43;1.60;;;1.10;;
6614;SDS011;3343;42.896;23.912;2023-03-14T12:01:18;1.17;;;1.08;;
6614;SDS011;3343;42.896;23.912;2023-03-14T12:03:52;1.40;;;1.15;;
6614;SDS011;3343;42.896;23.912;2023-03-14T12:06:25;3.15;;;1.10;;
6614;SDS011;3343;42.896;23.912;2023-03-14T12:08:59;1.63;;;1.30;;
6614;SDS011;3343;42.896;23.912;2023-03-14T12:11:38;2.08;;;1.40;;
6614;SDS011;3343;42.896;23.912;2023-03-14T12:14:17;1.90;;;1.17;;
6614;SDS011;3343;42.896;23.912;2023-03-14T12:16:47;4.03;;;1.27;;
6614;SDS011;3343;42.896;23.912;2023-03-14T12:24:50;2.53;;;0.90;;
6614;SDS011;3343;42.896;23.912;2023-03-14T12:30:16;1.40;;;1.30;;
6614;SDS011;3343;42.896;23.912;2023-03-14T12:35:59;1.17;;;1.08;;
6614;SDS011;3343;42.896;23.912;2023-03-14T12:38:29;0.93;;;0.93;;
6614;SDS011;3343;42.896;23.912;2023-03-14T12:41:12;1.40;;;1.30;;
6614;SDS011;3343;42.896;23.912;2023-03-14T12:43:44;1.38;;;1.27;;
6614;SDS011;3343;42.896;23.912;2023-03-14T12:46:21;1.25;;;1.13;;
6614;SDS011;3343;42.896;23.912;2023-03-14T12:48:50;1.60;;;1.30;;
6614;SDS011;3343;42.896;23.912;2023-03-14T12:51:27;2.80;;;1.80;;
6614;SDS011;3343;42.896;23.912;2023-03-14T12:54:03;5.20;;;1.73;;
6614;SDS011;3343;42.896;23.912;2023-03-14T12:56:45;3.28;;;1.30;;
6614;SDS011;3343;42.896;23.912;2023-03-14T12:59:30;1.17;;;1.08;;
6614;SDS011;3343;42.896;23.912;2023-03-14T13:02:10;2.38;;;1.10;;
6614;SDS011;3343;42.896;23.912;2023-03-14T13:04:50;1.48;;;1.02;;
6614;SDS011;3343;42.896;23.912;2023-03-14T13:07:33;1.48;;;1.10;;
6614;SDS011;3343;42.896;23.912;2023-03-14T13:10:17;1.52;;;1.13;;
6614;SDS011;3343;42.896;23.912;2023-03-14T13:12:48;4.97;;;2.45;;
6614;SDS011;3343;42.896;23.912;2023-03-14T13:15:20;5.07;;;2.53;;
6614;SDS011;3343;42.896;23.912;2023-03-14T13:17:50;4.20;;;1.83;;
6614;SDS011;3343;42.896;23.912;2023-03-14T13:20:22;1.33;;;1.20;;
6614;SDS011;3343;42.896;23.912;2023-03-14T13:22:53;1.40;;;1.30;;
6614;SDS011;3343;42.896;23.912;2023-03-14T13:25:20;1.58;;;1.30;;
6614;SDS011;3343;42.896;23.912;2023-03-14T13:27:48;1.80;;;1.40;;
6614;SDS011;3343;42.896;23.912;2023-03-14T13:30:19;1.42;;;1.13;;
6614;SDS011;3343;42.896;23.912;2023-03-14T13:32:52;1.30;;;1.17;;
6614;SDS011;3343;42.896;23.912;2023-03-14T13:35:21;2.20;;;1.20;;
6614;SDS011;3343;42.896;23.912;2023-03-14T13:37:54;1.20;;;1.10;;
6614;SDS011;3343;42.896;23.912;2023-03-14T13:40:29;1.10;;;1.00;;
6614;SDS011;3343;42.896;23.912;2023-03-14T13:43:04;3.85;;;2.28;;
6614;SDS011;3343;42.896;23.912;2023-03-14T13:45:47;3.25;;;1.98;;
6614;SDS011;3343;42.896;23.912;2023-03-14T13:48:16;1.60;;;1.40;;
6614;SDS011;3343;42.896;23.912;2023-03-14T13:50:49;3.13;;;1.20;;
6614;SDS011;3343;42.896;23.912;2023-03-14T13:53:18;1.20;;;1.10;;
6614;SDS011;3343;42.896;23.912;2023-03-14T13:55:45;1.52;;;1.02;;
6614;SDS011;3343;42.896;23.912;2023-03-14T13:58:13;1.83;;;1.10;;
6614;SDS011;3343;42.896;23.912;2023-03-14T14:00:56;1.08;;;0.98;;
6614;SDS011;3343;42.896;23.912;2023-03-14T14:03:26;1.00;;;0.90;;
6614;SDS011;3343;42.896;23.912;2023-03-14T14:05:55;1.20;;;1.03;;
6614;SDS011;3343;42.896;23.912;2023-03-14T14:08:24;1.17;;;1.00;;
6614;SDS011;3343;42.896;23.912;2023-03-14T14:10:52;2.50;;;1.10;;
6614;SDS011;3343;42.896;23.912;2023-03-14T14:13:24;0.90;;;0.90;;
6614;SDS011;3343;42.896;23.912;2023-03-14T14:15:54;0.93;;;0.93;;
6614;SDS011;3343;42.896;23.912;2023-03-14T14:18:25;1.53;;;1.23;;
6614;SDS011;3343;42.896;23.912;2023-03-14T14:20:55;1.20;;;1.10;;
6614;SDS011;3343;42.896;23.912;2023-03-14T14:23:23;1.30;;;0.97;;
6614;SDS011;3343;42.896;23.912;2023-03-14T14:25:54;1.10;;;1.00;;
6614;SDS011;3343;42.896;23.912;2023-03-14T14:28:23;0.80;;;0.80;;
6614;SDS011;3343;42.896;23.912;2023-03-14T14:31:01;1.20;;;0.97;;
6614;SDS011;3343;42.896;23.912;2023-03-14T14:33:37;1.10;;;1.00;;
6614;SDS011;3343;42.896;23.912;2023-03-14T14:36:12;1.10;;;1.00;;
6614;SDS011;3343;42.896;23.912;2023-03-14T14:38:48;2.07;;;1.40;;
6614;SDS011;3343;42.896;23.912;2023-03-14T14:41:16;1.40;;;1.20;;
6614;SDS011;3343;42.896;23.912;2023-03-14T14:43:43;0.87;;;0.87;;
6614;SDS011;3343;42.896;23.912;2023-03-14T14:46:15;1.47;;;1.20;;
6614;SDS011;3343;42.896;23.912;2023-03-14T14:48:45;2.03;;;1.40;;
6614;SDS011;3343;42.896;23.912;2023-03-14T14:51:23;4.57;;;1.77;;
6614;SDS011;3343;42.896;23.912;2023-03-14T14:54:09;1.80;;;1.30;;
6614;SDS011;3343;42.896;23.912;2023-03-14T14:56:38;2.63;;;1.73;;
6614;SDS011;3343;42.896;23.912;2023-03-14T14:59:05;1.10;;;1.00;;
6614;SDS011;3343;42.896;23.912;2023-03-14T15:01:46;1.63;;;1.30;;
6614;SDS011;3343;42.896;23.912;2023-03-14T15:04:15;1.00;;;0.90;;
6614;SDS011;3343;42.896;23.912;2023-03-14T15:06:42;1.50;;;1.30;;
6614;SDS011;3343;42.896;23.912;2023-03-14T15:09:10;1.73;;;1.57;;
6614;SDS011;3343;42.896;23.912;2023-03-14T15:11:38;1.90;;;1.60;;
6614;SDS011;3343;42.896;23.912;2023-03-14T15:14:05;2.93;;;1.30;;
6614;SDS011;3343;42.896;23.912;2023-03-14T15:16:32;2.27;;;1.13;;
6614;SDS011;3343;42.896;23.912;2023-03-14T15:19:02;2.57;;;1.20;;
6614;SDS011;3343;42.896;23.912;2023-03-14T15:21:34;1.93;;;1.10;;
6614;SDS011;3343;42.896;23.912;2023-03-14T15:24:03;1.73;;;1.30;;
6614;SDS011;3343;42.896;23.912;2023-03-14T15:26:31;1.10;;;1.00;;
6614;SDS011;3343;42.896;23.912;2023-03-14T15:28:57;1.40;;;1.10;;
6614;SDS011;3343;42.896;23.912;2023-03-14T15:31:24;1.43;;;1.20;;
6614;SDS011;3343;42.896;23.912;2023-03-14T15:33:51;1.37;;;1.27;;